createdAt,value
2023-05-20T00:02:06.618Z,22.58
2023-05-20T00:09:26.530Z,21.50
2023-05-20T00:16:45.026Z,21.55
2023-05-20T00:24:03.454Z,20.35
2023-05-20T00:31:23.546Z,19.88
2023-05-20T00:38:41.724Z,18.25
2023-05-20T00:45:59.954Z,19.48
2023-05-20T00:53:20.229Z,17.83
2023-05-20T01:00:39.012Z,17.33
2023-05-20T01:07:57.369Z,15.75
2023-05-20T01:15:17.784Z,15.50
2023-05-20T01:22:39.333Z,16.30
2023-05-20T01:29:57.608Z,15.95
2023-05-20T01:37:16.481Z,15.57
2023-05-20T01:44:37.363Z,14.45
2023-05-20T01:51:55.982Z,16.73
2023-05-20T01:59:14.344Z,16.20
2023-05-20T02:06:34.415Z,15.68
2023-05-20T02:13:52.915Z,15.40
2023-05-20T02:21:11.500Z,14.43
2023-05-20T02:28:31.380Z,16.45
2023-05-20T02:35:49.750Z,15.15
2023-05-20T02:43:08.043Z,16.38
2023-05-20T02:50:27.927Z,15.50
2023-05-20T02:57:46.310Z,15.77
2023-05-20T03:05:05.882Z,16.67
2023-05-20T03:12:26.537Z,15.85
2023-05-20T03:19:47.614Z,15.30
2023-05-20T03:27:07.133Z,15.73
2023-05-20T03:34:30.448Z,14.50
2023-05-20T03:41:48.848Z,14.40
2023-05-20T03:49:07.326Z,14.15
2023-05-20T03:56:27.720Z,13.50
2023-05-20T04:03:46.220Z,13.07
2023-05-20T04:11:04.864Z,13.48
2023-05-20T04:18:24.658Z,14.32
2023-05-20T04:25:44.865Z,12.25
2023-05-20T04:33:04.311Z,12.65
2023-05-20T04:40:25.369Z,14.45
2023-05-20T04:47:46.196Z,13.05
2023-05-20T04:55:06.515Z,12.48
2023-05-20T05:02:26.425Z,12.90
2023-05-20T05:09:45.923Z,13.77
2023-05-20T05:17:04.534Z,14.70
2023-05-20T05:24:24.509Z,15.43
2023-05-20T05:31:44.400Z,16.27
2023-05-20T05:39:02.858Z,17.00
2023-05-20T05:46:23.246Z,16.13
2023-05-20T05:53:42.008Z,17.27
2023-05-20T06:01:00.667Z,18.00
2023-05-20T06:08:22.497Z,18.25
2023-05-20T06:15:41.533Z,17.95
2023-05-20T06:23:00.156Z,18.15
2023-05-20T06:30:28.390Z,17.63
2023-05-20T06:37:46.785Z,16.42
2023-05-20T06:45:06.144Z,15.48
2023-05-20T06:52:45.901Z,14.25
2023-05-20T07:00:06.192Z,14.45
2023-05-20T07:07:29.196Z,14.10
2023-05-20T07:14:50.066Z,12.23
2023-05-20T07:22:08.539Z,11.75
2023-05-20T07:29:37.862Z,11.45
2023-05-20T07:36:58.281Z,11.48
2023-05-20T07:44:18.953Z,10.98
2023-05-20T07:51:40.466Z,10.98
2023-05-20T07:59:04.613Z,11.02
2023-05-20T08:06:29.979Z,10.80
2023-05-20T08:13:50.704Z,11.77
2023-05-20T08:21:11.442Z,10.27
2023-05-20T08:28:29.970Z,11.60
2023-05-20T08:35:49.880Z,10.10
2023-05-20T08:43:09.762Z,10.27
2023-05-20T08:50:28.915Z,9.90
2023-05-20T08:57:47.735Z,9.45
2023-05-20T09:05:09.456Z,8.88
2023-05-20T09:12:27.752Z,9.30
2023-05-20T09:19:46.159Z,8.95
2023-05-20T09:27:06.623Z,9.55
2023-05-20T09:34:25.333Z,10.00
2023-05-20T09:41:51.116Z,9.82
2023-05-20T09:49:11.057Z,10.48
2023-05-20T09:56:30.104Z,10.50
2023-05-20T10:03:48.416Z,10.90
2023-05-20T10:11:15.022Z,10.13
2023-05-20T10:18:43.607Z,9.32
2023-05-20T10:26:09.442Z,9.15
2023-05-20T10:33:28.671Z,10.02
2023-05-20T10:40:47.002Z,10.18
2023-05-20T10:48:07.137Z,10.02
2023-05-20T10:55:25.969Z,10.18
2023-05-20T11:02:44.820Z,10.32
2023-05-20T11:10:09.989Z,10.57
2023-05-20T11:17:30.047Z,9.43
2023-05-20T11:24:48.331Z,9.15
2023-05-20T11:32:09.729Z,9.38
2023-05-20T11:39:31.619Z,9.27
2023-05-20T11:46:50.255Z,10.32
2023-05-20T11:54:11.929Z,10.55
2023-05-20T12:01:33.985Z,10.75
2023-05-20T12:08:52.370Z,10.40
2023-05-20T12:16:12.219Z,9.90
2023-05-20T12:23:34.370Z,9.68
2023-05-20T12:30:53.180Z,10.07
2023-05-20T12:38:13.207Z,9.93
2023-05-20T12:45:39.485Z,11.10
2023-05-20T12:52:57.888Z,10.75
2023-05-20T13:00:19.489Z,11.43
2023-05-20T13:07:38.200Z,13.98
2023-05-20T13:14:57.095Z,13.00
2023-05-20T13:22:18.334Z,13.43
2023-05-20T13:29:36.620Z,13.70
2023-05-20T13:36:54.853Z,14.68
2023-05-20T13:44:14.610Z,13.75
2023-05-20T13:51:32.954Z,15.02
2023-05-20T13:58:51.710Z,15.60
2023-05-20T14:06:11.726Z,13.80
2023-05-20T14:13:30.031Z,13.82
2023-05-20T14:20:48.646Z,14.38
2023-05-20T14:28:08.736Z,15.38
2023-05-20T14:35:27.478Z,15.45
2023-05-20T14:42:45.997Z,13.85
2023-05-20T14:50:06.182Z,15.13
2023-05-20T14:57:24.542Z,14.85
2023-05-20T15:04:44.488Z,14.70
2023-05-20T15:12:04.607Z,15.38
2023-05-20T15:19:23.039Z,15.18
2023-05-20T15:26:42.461Z,15.93
2023-05-20T15:34:02.590Z,15.85
2023-05-20T15:41:21.810Z,17.38
2023-05-20T15:48:41.350Z,18.45
2023-05-20T15:56:01.626Z,18.38
2023-05-20T16:03:20.141Z,19.10
2023-05-20T16:10:38.558Z,19.25
2023-05-20T16:17:58.456Z,20.70
2023-05-20T16:25:16.814Z,18.67
2023-05-20T16:32:35.239Z,19.30
2023-05-20T16:39:55.470Z,18.13
2023-05-20T16:47:14.144Z,18.98
2023-05-20T16:54:32.824Z,18.80
2023-05-20T17:01:52.996Z,18.38
2023-05-20T17:09:11.281Z,18.90
2023-05-20T17:16:29.938Z,19.63
2023-05-20T17:23:50.124Z,21.38
2023-05-20T17:31:09.213Z,22.63
2023-05-20T17:38:27.636Z,24.15
2023-05-20T17:45:47.692Z,24.27
2023-05-20T17:53:06.232Z,23.40
2023-05-20T18:00:24.480Z,24.00
2023-05-20T18:07:44.496Z,25.48
2023-05-20T18:15:03.031Z,22.85
2023-05-20T18:22:27.594Z,24.83
2023-05-20T18:29:47.556Z,26.75
2023-05-20T18:37:06.333Z,28.90
2023-05-20T18:44:27.149Z,29.15
2023-05-20T18:51:47.636Z,29.85
2023-05-20T18:59:07.718Z,28.80
2023-05-20T19:06:29.257Z,28.40
2023-05-20T19:13:54.244Z,29.08
2023-05-20T19:21:15.264Z,28.60
2023-05-20T19:28:34.355Z,29.92
2023-05-20T19:35:57.897Z,27.77
2023-05-20T19:43:16.354Z,28.15
2023-05-20T19:50:35.462Z,28.10
2023-05-20T19:57:56.608Z,29.15
2023-05-20T20:05:15.595Z,29.70
2023-05-20T20:12:34.079Z,28.38
2023-05-20T20:19:58.182Z,28.40
2023-05-20T20:27:16.448Z,30.50
2023-05-20T20:34:38.784Z,29.23
2023-05-20T20:42:00.788Z,29.88
2023-05-20T20:49:19.435Z,29.90
2023-05-20T20:56:40.054Z,29.90
2023-05-20T21:04:01.360Z,28.00
2023-05-20T21:11:19.869Z,28.58
2023-05-20T21:18:38.196Z,28.20
2023-05-20T21:25:58.998Z,28.95
2023-05-20T21:33:21.427Z,28.52
2023-05-20T21:40:40.182Z,29.23
2023-05-20T21:48:00.500Z,28.35
2023-05-20T21:55:23.642Z,28.17
2023-05-20T22:10:02.527Z,29.40
2023-05-20T22:17:21.915Z,27.58
2023-05-20T22:24:40.404Z,26.83
2023-05-20T22:32:00.597Z,27.40
2023-05-20T22:39:19.209Z,26.65
2023-05-20T22:46:37.768Z,26.70
2023-05-20T22:53:58.535Z,24.60
2023-05-20T23:01:17.407Z,24.48
2023-05-20T23:08:35.838Z,21.88
2023-05-20T23:15:55.921Z,23.08
2023-05-20T23:23:14.397Z,22.50
2023-05-20T23:30:33.203Z,23.27
2023-05-20T23:37:53.426Z,21.98
2023-05-20T23:45:13.171Z,21.33
2023-05-20T23:52:31.664Z,20.10
2023-05-20T23:59:51.439Z,18.20
